createdAt,value
2022-08-10T00:01:51.303Z,102708.50
2022-08-10T00:04:21.758Z,102699.09
2022-08-10T00:06:52.506Z,102684.53
2022-08-10T00:09:20.582Z,102668.25
2022-08-10T00:11:48.548Z,102656.22
2022-08-10T00:14:16.867Z,102654.59
2022-08-10T00:16:44.975Z,102650.41
2022-08-10T00:19:13.151Z,102641.78
2022-08-10T00:21:46.518Z,102627.09
2022-08-10T00:24:16.250Z,102620.19
2022-08-10T00:27:52.145Z,102622.94
2022-08-10T00:29:32.501Z,102628.22
2022-08-10T00:32:00.519Z,102632.59
2022-08-10T00:34:28.910Z,102638.66
2022-08-10T00:36:57.154Z,102652.47
2022-08-10T00:39:26.995Z,102665.50
2022-08-10T00:42:02.169Z,102669.78
2022-08-10T00:44:36.513Z,102669.78
2022-08-10T00:47:04.800Z,102666.28
2022-08-10T00:49:33.061Z,102660.22
2022-08-10T00:52:01.045Z,102669.03
2022-08-10T00:54:30.593Z,102662.94
2022-08-10T00:57:16.473Z,102660.41
2022-08-10T00:59:58.446Z,102645.56
2022-08-10T01:02:29.195Z,102650.09
2022-08-10T01:05:01.333Z,102651.88
2022-08-10T01:07:43.228Z,102647.69
2022-08-10T01:10:24.114Z,102640.69
2022-08-10T01:12:57.937Z,102639.13
2022-08-10T01:15:30.454Z,102634.00
2022-08-10T01:18:05.018Z,102632.38
2022-08-10T01:20:39.683Z,102627.25
2022-08-10T01:23:56.398Z,102618.66
2022-08-10T01:26:44.155Z,102619.00
2022-08-10T01:29:45.266Z,102603.47
2022-08-10T01:32:18.659Z,102594.19
2022-08-10T01:34:52.840Z,102582.06
2022-08-10T01:37:26.166Z,102584.88
2022-08-10T01:39:58.703Z,102577.22
2022-08-10T01:42:29.577Z,102576.50
2022-08-10T01:45:00.730Z,102560.06
2022-08-10T01:47:52.833Z,102560.22
2022-08-10T01:50:27.027Z,102555.09
2022-08-10T01:52:59.846Z,102556.06
2022-08-10T01:55:29.206Z,102546.59
2022-08-10T01:57:59.867Z,102548.53
2022-08-10T02:00:31.145Z,102535.59
2022-08-10T02:03:02.949Z,102542.00
2022-08-10T02:05:34.182Z,102535.09
2022-08-10T02:08:05.799Z,102523.84
2022-08-10T02:10:36.395Z,102535.41
2022-08-10T02:13:05.459Z,102538.13
2022-08-10T02:15:35.691Z,102546.03
2022-08-10T02:18:07.558Z,102548.63
2022-08-10T02:20:38.864Z,102559.09
2022-08-10T02:23:10.629Z,102560.03
2022-08-10T02:25:43.665Z,102560.03
2022-08-10T02:28:30.621Z,102573.31
2022-08-10T02:31:02.802Z,102574.16
2022-08-10T02:33:36.990Z,102575.03
2022-08-10T02:36:07.593Z,102587.47
2022-08-10T02:38:59.181Z,102583.19
2022-08-10T02:45:12.666Z,102588.63
2022-08-10T02:45:21.099Z,102576.50
2022-08-10T02:47:21.759Z,102567.03
2022-08-10T02:49:57.441Z,102569.84
2022-08-10T02:52:36.471Z,102567.25
2022-08-10T02:55:17.765Z,102574.41
2022-08-10T02:58:13.327Z,102579.78
2022-08-10T03:00:45.851Z,102600.13
2022-08-10T03:03:20.120Z,102610.84
2022-08-10T03:05:54.917Z,102632.97
2022-08-10T03:08:27.399Z,102646.31
2022-08-10T03:10:57.611Z,102654.41
2022-08-10T03:13:26.178Z,102664.19
2022-08-10T03:15:55.739Z,102675.75
2022-08-10T03:18:25.665Z,102682.88
2022-08-10T03:20:57.378Z,102692.69
2022-08-10T03:23:28.196Z,102704.16
2022-08-10T03:25:58.935Z,102710.44
2022-08-10T03:28:30.393Z,102708.81
2022-08-10T03:31:00.274Z,102715.94
2022-08-10T03:33:31.192Z,102710.72
2022-08-10T03:36:43.072Z,102715.22
2022-08-10T03:38:51.872Z,102717.97
2022-08-10T03:41:24.716Z,102718.09
2022-08-10T03:43:54.313Z,102721.66
2022-08-10T03:46:25.883Z,102728.81
2022-08-10T03:48:57.010Z,102727.16
2022-08-10T03:51:28.682Z,102727.31
2022-08-10T03:54:05.248Z,102725.69
2022-08-10T03:56:39.839Z,102734.59
2022-08-10T03:59:09.694Z,102746.94
2022-08-10T04:02:44.421Z,102745.19
2022-08-10T04:04:26.331Z,102750.47
2022-08-10T04:06:57.426Z,102741.84
2022-08-10T04:09:29.646Z,102747.22
2022-08-10T04:12:11.608Z,102749.94
2022-08-10T04:14:49.420Z,102747.34
2022-08-10T04:18:03.038Z,102747.44
2022-08-10T04:20:13.054Z,102746.72
2022-08-10T04:22:44.837Z,102750.41
2022-08-10T04:25:13.978Z,102753.22
2022-08-10T04:27:42.598Z,102747.13
2022-08-10T04:30:11.895Z,102742.91
2022-08-10T04:32:42.531Z,102750.09
2022-08-10T04:35:12.139Z,102748.47
2022-08-10T04:37:47.132Z,102747.59
2022-08-10T04:40:29.760Z,102757.28
2022-08-10T04:43:11.268Z,102757.28
2022-08-10T04:45:48.612Z,102757.38
2022-08-10T04:48:43.016Z,102754.00
2022-08-10T04:51:11.171Z,102769.06
2022-08-10T04:54:05.411Z,102767.41
2022-08-10T04:56:36.633Z,102767.53
2022-08-10T04:59:06.284Z,102767.63
2022-08-10T05:01:37.811Z,102772.91
2022-08-10T05:04:35.447Z,102773.69
2022-08-10T05:07:08.608Z,102778.09
2022-08-10T05:10:02.511Z,102791.25
2022-08-10T05:12:26.401Z,102793.91
2022-08-10T05:14:54.951Z,102796.63
2022-08-10T05:17:23.971Z,102801.91
2022-08-10T05:20:04.770Z,102797.44
2022-08-10T05:22:38.325Z,102799.25
2022-08-10T05:25:08.821Z,102806.22
2022-08-10T05:27:38.519Z,102815.84
2022-08-10T05:30:08.205Z,102825.47
2022-08-10T05:32:56.273Z,102832.44
2022-08-10T05:35:25.877Z,102835.09
2022-08-10T05:38:09.384Z,102840.34
2022-08-10T05:40:46.435Z,102830.75
2022-08-10T05:43:18.691Z,102825.63
2022-08-10T05:46:16.705Z,102829.16
2022-08-10T05:48:54.952Z,102823.88
2022-08-10T05:51:24.023Z,102824.81
2022-08-10T05:54:02.199Z,102823.03
2022-08-10T05:56:56.710Z,102820.34
2022-08-10T06:00:32.814Z,102826.41
2022-08-10T06:02:32.001Z,102829.81
2022-08-10T06:05:07.574Z,102842.84
2022-08-10T06:07:38.846Z,102837.50
2022-08-10T06:10:10.679Z,102844.38
2022-08-10T06:12:53.556Z,102824.88
2022-08-10T06:15:52.253Z,102814.16
2022-08-10T06:18:15.454Z,102816.59
2022-08-10T06:20:44.039Z,102827.06
2022-08-10T06:23:13.555Z,102825.19
2022-08-10T06:26:11.333Z,102822.56
2022-08-10T06:28:34.172Z,102825.19
2022-08-10T06:31:05.514Z,102816.41
2022-08-10T06:33:36.697Z,102812.88
2022-08-10T06:36:07.143Z,102818.91
2022-08-10T06:38:37.311Z,102817.91
2022-08-10T06:41:18.012Z,102830.06
2022-08-10T06:43:57.727Z,102831.63
2022-08-10T06:46:29.176Z,102832.38
2022-08-10T06:49:01.305Z,102844.53
2022-08-10T06:51:33.223Z,102837.41
2022-08-10T06:54:04.189Z,102834.63
2022-08-10T06:56:37.668Z,102842.38
2022-08-10T06:59:13.231Z,102841.31
2022-08-10T07:01:58.663Z,102851.59
2022-08-10T07:04:32.726Z,102853.06
2022-08-10T07:07:05.309Z,102866.00
2022-08-10T07:09:36.466Z,102863.00
2022-08-10T07:12:09.163Z,102854.78
2022-08-10T07:14:42.114Z,102860.63
2022-08-10T07:17:15.891Z,102867.34
2022-08-10T07:19:49.828Z,102866.09
2022-08-10T07:23:08.120Z,102878.94
2022-08-10T07:25:13.262Z,102881.16
2022-08-10T07:27:58.751Z,102885.22
2022-08-10T07:30:30.059Z,102883.22
2022-08-10T07:33:01.461Z,102878.41
2022-08-10T07:35:37.071Z,102843.72
2022-08-10T07:38:14.101Z,102839.84
2022-08-10T07:40:43.538Z,102849.16
2022-08-10T07:43:13.899Z,102854.09
2022-08-10T07:45:42.403Z,102858.13
2022-08-10T07:48:16.991Z,102860.34
2022-08-10T07:50:47.217Z,102869.75
2022-08-10T07:53:21.991Z,102882.59
2022-08-10T07:56:05.007Z,102892.72
2022-08-10T07:58:49.981Z,102910.78
2022-08-10T08:01:23.546Z,102920.84
2022-08-10T08:04:10.742Z,102932.69
2022-08-10T08:06:41.418Z,102951.41
2022-08-10T08:09:10.301Z,102964.06
2022-08-10T08:11:40.808Z,102974.94
2022-08-10T08:14:10.206Z,102973.50
2022-08-10T08:16:41.320Z,102990.69
2022-08-10T08:19:28.555Z,103003.38
2022-08-10T08:24:10.407Z,103033.56
2022-08-10T08:24:53.178Z,103049.75
2022-08-10T08:27:22.172Z,103054.44
2022-08-10T08:29:51.883Z,103075.06
2022-08-10T08:32:23.375Z,103099.19
2022-08-10T08:34:56.995Z,103116.16
2022-08-10T08:38:29.623Z,103141.94
2022-08-10T08:40:22.454Z,103165.13
2022-08-10T08:43:31.410Z,103191.66
2022-08-10T08:46:19.697Z,103217.34
2022-08-10T08:49:01.837Z,103262.38
2022-08-10T08:52:12.441Z,103314.34
2022-08-10T08:54:40.241Z,103363.59
2022-08-10T08:57:46.300Z,103406.03
2022-08-10T09:00:15.009Z,103445.88
2022-08-10T09:03:04.097Z,103460.31
2022-08-10T09:05:58.792Z,103488.00
2022-08-10T09:09:04.871Z,103509.47
2022-08-10T09:11:49.963Z,103542.41
2022-08-10T09:14:26.116Z,103564.97
2022-08-10T09:17:04.660Z,103589.06
2022-08-10T09:19:38.550Z,103616.69
2022-08-10T09:22:18.148Z,103628.59
2022-08-10T09:24:55.431Z,103651.06
2022-08-10T09:27:43.369Z,103668.31
2022-08-10T09:30:16.294Z,103682.13
2022-08-10T09:36:14.152Z,103703.78
2022-08-10T09:36:20.172Z,103724.47
2022-08-10T09:38:49.899Z,103755.66
2022-08-10T09:41:30.052Z,103768.38
2022-08-10T09:44:13.030Z,103796.19
2022-08-10T09:47:06.184Z,103812.53
2022-08-10T09:49:57.055Z,103825.41
2022-08-10T09:52:38.262Z,103850.59
2022-08-10T09:55:14.272Z,103868.63
2022-08-10T09:57:56.837Z,103865.59
2022-08-10T10:00:35.649Z,103882.13
2022-08-10T10:03:13.504Z,103902.19
2022-08-10T10:05:52.695Z,103915.84
2022-08-10T10:08:33.514Z,103924.25
2022-08-10T10:11:13.148Z,103939.91
2022-08-10T10:14:03.010Z,103944.00
2022-08-10T10:16:47.491Z,103957.88
2022-08-10T10:19:31.173Z,103961.88
2022-08-10T10:22:14.248Z,103966.97
2022-08-10T10:24:52.047Z,103973.81
2022-08-10T10:27:27.900Z,103985.06
2022-08-10T10:30:04.113Z,104007.66
2022-08-10T10:32:46.069Z,104022.19
2022-08-10T10:35:22.527Z,104034.31
2022-08-10T10:38:01.025Z,104035.00
2022-08-10T10:40:39.295Z,104045.41
2022-08-10T10:43:19.637Z,104057.53
2022-08-10T10:45:58.851Z,104059.03
2022-08-10T10:48:39.950Z,104072.81
2022-08-10T10:51:16.030Z,104078.72
2022-08-10T10:53:50.863Z,104094.41
2022-08-10T10:56:27.333Z,104109.97
2022-08-10T10:59:16.042Z,104131.88
2022-08-10T11:02:02.747Z,104147.47
2022-08-10T11:04:41.146Z,104158.53
2022-08-10T11:07:17.207Z,104160.16
2022-08-10T11:10:05.481Z,104173.19
2022-08-10T11:12:57.062Z,104186.06
2022-08-10T11:15:42.676Z,104203.31
2022-08-10T11:18:23.558Z,104224.91
2022-08-10T11:21:02.058Z,104242.31
2022-08-10T11:23:37.800Z,104243.66
2022-08-10T11:26:12.879Z,104254.75
2022-08-10T11:28:46.273Z,104274.66
2022-08-10T11:31:21.194Z,104294.53
2022-08-10T11:34:46.776Z,104295.78
2022-08-10T11:37:00.612Z,104310.13
2022-08-10T11:39:49.669Z,104323.72
2022-08-10T11:42:35.823Z,104342.88
2022-08-10T11:45:11.373Z,104366.09
2022-08-10T11:47:46.209Z,104386.88
2022-08-10T11:50:21.155Z,104404.06
2022-08-10T11:53:01.080Z,104430.13
2022-08-10T11:55:33.518Z,104468.63
2022-08-10T11:58:22.979Z,104521.91
2022-08-10T12:00:52.334Z,104566.03
2022-08-10T12:03:20.878Z,104606.00
2022-08-10T12:05:54.708Z,104635.25
2022-08-10T12:10:11.175Z,104667.41
2022-08-10T12:11:24.764Z,104680.94
2022-08-10T12:14:20.196Z,104723.63
2022-08-10T12:16:51.279Z,104782.97
2022-08-10T12:19:25.169Z,104811.47
2022-08-10T12:22:05.774Z,104856.78
2022-08-10T12:24:41.207Z,104886.03
2022-08-10T12:27:15.554Z,104915.69
2022-08-10T12:29:47.576Z,104924.22
2022-08-10T12:32:25.433Z,104953.78
2022-08-10T12:34:58.219Z,104992.97
2022-08-10T12:37:34.755Z,105034.97
2022-08-10T12:40:34.319Z,105052.94
2022-08-10T12:44:03.838Z,105092.84
2022-08-10T12:46:06.755Z,105143.41
2022-08-10T12:48:38.908Z,105175.41
2022-08-10T12:51:14.575Z,105219.28
2022-08-10T12:53:54.295Z,105235.47
2022-08-10T12:56:27.171Z,105255.59
2022-08-10T12:59:01.110Z,105284.38
2022-08-10T13:02:07.438Z,105281.34
2022-08-10T13:04:28.371Z,105299.28
2022-08-10T13:06:58.319Z,105309.56
2022-08-10T13:09:27.271Z,105333.13
2022-08-10T13:12:36.969Z,105374.16
2022-08-10T13:14:54.323Z,105379.09
2022-08-10T13:17:38.658Z,105375.22
2022-08-10T13:20:17.267Z,105378.44
2022-08-10T13:22:48.515Z,105392.50
2022-08-10T13:25:21.529Z,105420.41
2022-08-10T13:28:00.713Z,105426.28
2022-08-10T13:30:41.778Z,105441.97
2022-08-10T13:33:12.238Z,105454.84
2022-08-10T13:35:41.115Z,105470.44
2022-08-10T13:38:11.428Z,105477.25
2022-08-10T13:40:40.213Z,105484.06
2022-08-10T13:43:11.425Z,105519.13
2022-08-10T13:45:49.245Z,105547.91
2022-08-10T13:48:21.605Z,105554.63
2022-08-10T13:50:51.819Z,105571.19
2022-08-10T13:53:21.608Z,105595.75
2022-08-10T13:55:56.188Z,105606.78
2022-08-10T13:58:30.154Z,105616.34
2022-08-10T14:01:00.760Z,105639.09
2022-08-10T14:03:30.205Z,105655.66
2022-08-10T14:05:59.610Z,105691.72
2022-08-10T14:08:30.421Z,105658.66
2022-08-10T14:11:11.050Z,105648.16
2022-08-10T14:13:46.695Z,105650.53
2022-08-10T14:16:14.962Z,105648.16
2022-08-10T14:18:45.923Z,105635.69
2022-08-10T14:21:14.919Z,105629.94
2022-08-10T14:23:51.864Z,105640.56
2022-08-10T14:26:24.565Z,105667.59
2022-08-10T14:28:57.339Z,105711.53
2022-08-10T14:31:33.652Z,105741.97
2022-08-10T14:34:04.912Z,105779.78
2022-08-10T14:36:42.027Z,105818.50
2022-08-10T14:39:16.000Z,105827.06
2022-08-10T14:42:01.223Z,105842.78
2022-08-10T14:44:44.972Z,105828.44
2022-08-10T14:47:53.597Z,105816.31
2022-08-10T14:50:05.886Z,105828.44
2022-08-10T14:52:44.339Z,105841.53
2022-08-10T14:55:19.439Z,105835.59
2022-08-10T14:58:16.172Z,105813.50
2022-08-10T15:00:43.120Z,105817.09
2022-08-10T15:03:59.491Z,105817.69
2022-08-10T15:06:18.045Z,105843.19
2022-08-10T15:08:47.843Z,105837.84
2022-08-10T15:12:13.732Z,105843.72
2022-08-10T15:14:29.258Z,105863.97
2022-08-10T15:16:58.684Z,105872.63
2022-08-10T15:20:01.032Z,105891.97
2022-08-10T15:22:37.257Z,105883.72
2022-08-10T15:25:19.370Z,105878.28
2022-08-10T15:27:56.684Z,105882.38
2022-08-10T15:30:31.567Z,105873.59
2022-08-10T15:34:03.202Z,105884.00
2022-08-10T15:36:43.849Z,105902.06
2022-08-10T15:40:22.478Z,105942.66
2022-08-10T15:42:21.759Z,105908.16
2022-08-10T15:44:53.573Z,105875.50
2022-08-10T15:47:25.087Z,105889.47
2022-08-10T15:50:03.198Z,105933.06
2022-08-10T15:52:39.948Z,105970.69
2022-08-10T15:55:43.915Z,105994.97
2022-08-10T15:58:20.061Z,105998.94
2022-08-10T16:02:15.063Z,106041.19
2022-08-10T16:04:08.329Z,106075.50
2022-08-10T16:06:44.866Z,106094.59
2022-08-10T16:10:23.093Z,106122.50
2022-08-10T16:12:15.852Z,106135.50
2022-08-10T16:14:48.559Z,106139.75
2022-08-10T16:17:18.983Z,106160.53
2022-08-10T16:19:50.977Z,106200.31
2022-08-10T16:22:36.466Z,106199.84
2022-08-10T16:25:13.225Z,106210.41
2022-08-10T16:27:42.868Z,106217.13
2022-08-10T16:30:11.504Z,106216.00
2022-08-10T16:32:42.163Z,106233.34
2022-08-10T16:35:18.707Z,106238.66
2022-08-10T16:37:59.033Z,106210.31
2022-08-10T16:40:28.933Z,106204.00
2022-08-10T16:42:58.702Z,106211.91
2022-08-10T16:45:34.720Z,106240.16
2022-08-10T16:48:05.506Z,106238.91
2022-08-10T16:50:36.607Z,106259.13
2022-08-10T16:53:09.018Z,106274.06
2022-08-10T16:55:49.719Z,106279.13
2022-08-10T16:58:21.642Z,106294.13
2022-08-10T17:00:51.723Z,106311.38
2022-08-10T17:04:08.195Z,106327.13
2022-08-10T17:06:22.055Z,106352.41
2022-08-10T17:08:54.950Z,106365.34
2022-08-10T17:11:28.408Z,106360.88
2022-08-10T17:13:58.104Z,106360.78
2022-08-10T17:16:29.472Z,106362.50
2022-08-10T17:18:58.468Z,106370.56
2022-08-10T17:21:31.451Z,106362.97
2022-08-10T17:24:03.963Z,106362.25
2022-08-10T17:26:37.421Z,106357.66
2022-08-10T17:29:53.595Z,106323.78
2022-08-10T17:32:06.539Z,106329.00
2022-08-10T17:34:38.149Z,106353.31
2022-08-10T17:37:14.442Z,106355.78
2022-08-10T17:39:48.273Z,106360.88
2022-08-10T17:42:21.721Z,106359.13
2022-08-10T17:44:52.140Z,106361.50
2022-08-10T17:47:22.005Z,106371.13
2022-08-10T17:49:55.376Z,106365.44
2022-08-10T17:52:28.871Z,106379.50
2022-08-10T17:55:02.339Z,106387.53
2022-08-10T17:57:35.988Z,106374.13
2022-08-10T18:00:06.811Z,106406.16
2022-08-10T18:02:40.286Z,106403.19
2022-08-10T18:05:11.196Z,106386.56
2022-08-10T18:07:45.039Z,106332.56
2022-08-10T18:10:18.215Z,106326.50
2022-08-10T18:12:48.586Z,106314.94
2022-08-10T18:15:22.016Z,106303.41
2022-08-10T18:17:59.066Z,106267.34
2022-08-10T18:20:34.140Z,106137.19
2022-08-10T18:23:02.652Z,105943.16
2022-08-10T18:25:36.206Z,105750.44
2022-08-10T18:28:06.599Z,105551.13
2022-08-10T18:30:45.522Z,105401.03
2022-08-10T18:33:16.074Z,105253.06
2022-08-10T18:35:46.226Z,105135.03
2022-08-10T18:38:16.109Z,105035.88
2022-08-10T18:40:53.858Z,104941.81
2022-08-10T18:44:06.075Z,104849.31
2022-08-10T18:46:23.393Z,104765.09
2022-08-10T18:48:55.231Z,104688.28
2022-08-10T18:51:26.603Z,104633.59
2022-08-10T18:54:00.511Z,104591.44
2022-08-10T18:56:55.145Z,104534.97
2022-08-10T19:00:07.922Z,104489.28
2022-08-10T19:02:50.893Z,104430.56
2022-08-10T19:05:36.468Z,104382.34
2022-08-10T19:08:30.509Z,104324.25
2022-08-10T19:11:04.172Z,104275.88
2022-08-10T19:13:50.679Z,104212.94
2022-08-10T19:16:30.291Z,104169.03
2022-08-10T19:19:22.259Z,104118.59
2022-08-10T19:21:59.466Z,104055.84
2022-08-10T19:24:36.076Z,104002.69
2022-08-10T19:27:12.855Z,103972.72
2022-08-10T19:30:12.418Z,103938.06
2022-08-10T19:32:56.031Z,103905.25
2022-08-10T19:35:35.449Z,103878.50
2022-08-10T19:38:33.085Z,103854.41
2022-08-10T19:41:17.849Z,103832.00
2022-08-10T19:44:00.494Z,103814.03
2022-08-10T19:46:40.599Z,103795.06
2022-08-10T19:49:18.667Z,103777.06
2022-08-10T19:51:56.769Z,103743.13
2022-08-10T19:54:32.638Z,103720.63
2022-08-10T19:57:10.503Z,103704.38
2022-08-10T20:00:17.140Z,103684.47
2022-08-10T20:02:50.378Z,103649.75
2022-08-10T20:05:28.412Z,103627.31
2022-08-10T20:08:03.746Z,103617.97
2022-08-10T20:10:38.767Z,103594.56
2022-08-10T20:13:13.854Z,103571.88
2022-08-10T20:15:47.551Z,103561.84
2022-08-10T20:18:24.474Z,103549.88
2022-08-10T20:21:00.076Z,103540.56
2022-08-10T20:23:34.133Z,103535.56
2022-08-10T20:26:09.518Z,103519.78
2022-08-10T20:28:43.441Z,103519.91
2022-08-10T20:31:17.570Z,103512.22
2022-08-10T20:34:00.923Z,103512.53
2022-08-10T20:36:33.832Z,103508.25
2022-08-10T20:39:13.166Z,103506.78
2022-08-10T20:41:56.100Z,103496.50
2022-08-10T20:44:35.900Z,103479.19
2022-08-10T20:47:12.105Z,103480.16
2022-08-10T20:49:49.570Z,103475.03
2022-08-10T20:52:17.678Z,103469.91
2022-08-10T20:54:50.946Z,103470.84
2022-08-10T20:57:54.412Z,103469.38
2022-08-10T21:00:23.290Z,103459.84
2022-08-10T21:03:06.924Z,103452.03
2022-08-10T21:05:52.919Z,103444.25
2022-08-10T21:08:34.484Z,103421.59
2022-08-10T21:11:08.476Z,103413.97
2022-08-10T21:13:58.939Z,103401.81
2022-08-10T21:16:41.433Z,103389.94
2022-08-10T21:19:54.008Z,103375.19
2022-08-10T21:22:29.343Z,103358.00
2022-08-10T21:25:02.800Z,103344.97
2022-08-10T21:27:49.266Z,103334.63
2022-08-10T21:30:37.953Z,103321.78
2022-08-10T21:33:12.031Z,103307.06
2022-08-10T21:35:44.899Z,103299.38
2022-08-10T21:38:24.424Z,103289.97
2022-08-10T21:41:58.436Z,103282.31
2022-08-10T21:45:07.693Z,103266.78
2022-08-10T21:48:16.656Z,103251.28
2022-08-10T21:51:09.699Z,103237.53
2022-08-10T21:54:08.739Z,103221.94
2022-08-10T21:57:00.125Z,103206.50
2022-08-10T21:59:56.177Z,103199.75
2022-08-10T22:02:50.031Z,103193.03
2022-08-10T22:05:42.576Z,103170.41
2022-08-10T22:08:31.476Z,103158.47
2022-08-10T22:11:21.656Z,103151.66
2022-08-10T22:14:09.358Z,103147.47
2022-08-10T22:17:02.873Z,103140.72
2022-08-10T22:19:51.585Z,103126.84
2022-08-10T22:22:56.099Z,103121.84
2022-08-10T22:25:55.976Z,103111.59
2022-08-10T22:28:48.714Z,103106.56
2022-08-10T22:31:50.636Z,103102.28
2022-08-10T22:34:58.127Z,103102.53
2022-08-10T22:37:56.299Z,103090.56
2022-08-10T22:40:43.020Z,103074.03
2022-08-10T22:43:38.282Z,103066.47
2022-08-10T22:46:40.087Z,103057.94
2022-08-10T22:49:07.841Z,103049.41
2022-08-10T22:51:52.128Z,103035.56
2022-08-10T22:54:45.016Z,103031.38
2022-08-10T22:57:32.926Z,103022.75
2022-08-10T23:00:10.793Z,103018.47
2022-08-10T23:02:41.058Z,103013.34
2022-08-10T23:05:14.167Z,103003.09
2022-08-10T23:07:48.587Z,102990.19
2022-08-10T23:10:19.775Z,102978.16
2022-08-10T23:12:51.003Z,102968.78
2022-08-10T23:15:41.230Z,102953.22
2022-08-10T23:18:33.185Z,102943.81
2022-08-10T23:21:02.431Z,102924.03
2022-08-10T23:23:37.858Z,102909.44
2022-08-10T23:26:07.352Z,102899.09
2022-08-10T23:37:56.827Z,102896.97
2022-08-10T23:40:26.967Z,102883.31
2022-08-10T23:42:57.593Z,102877.41
2022-08-10T23:45:52.282Z,102867.00
2022-08-10T23:48:21.187Z,102861.22
2022-08-10T23:50:53.340Z,102852.56
2022-08-10T23:53:30.068Z,102854.63
2022-08-10T23:56:09.497Z,102847.66
2022-08-10T23:58:43.112Z,102845.97
